Time;durP1;ratioP1;P1;durP2;ratioP2;P2;SDS_P1;SDS_P2;PMS_P1;PMS_P2;Temp;Humidity;BMP_temperature;BMP_pressure;BME280_temperature;BME280_humidity;BME280_pressure;Samples;Min_cycle;Max_cycle;Signal;HPM_P1;HPM_P2
2022/03/12 00:01:11;;;;;;;6.25;4.18;;;;;;;20.35;42.76;101238.81;5032982;28;20484;-67
2022/03/12 00:03:36;;;;;;;6.82;3.90;;;;;;;20.35;42.90;101233.53;5034146;28;20056;-66
2022/03/12 00:06:02;;;;;;;7.57;3.58;;;;;;;20.34;43.14;101229.19;5034303;28;20096;-66
2022/03/12 00:08:46;;;;;;;6.95;4.00;;;;;;;20.30;43.06;101233.91;5033802;28;20056;-67
2022/03/12 00:11:15;;;;;;;6.68;3.67;;;;;;;20.28;42.86;101226.09;5034280;28;20046;-67
2022/03/12 00:13:41;;;;;;;6.53;3.97;;;;;;;20.28;42.66;101239.34;5033147;28;20030;-67
2022/03/12 00:16:13;;;;;;;5.95;3.75;;;;;;;20.29;43.12;101232.22;5034145;28;20377;-67
2022/03/12 00:18:38;;;;;;;6.53;3.55;;;;;;;20.23;42.88;101228.28;5034100;28;20025;-67
2022/03/12 00:21:06;;;;;;;7.18;3.97;;;;;;;20.25;42.94;101238.72;5033491;28;20022;-67
2022/03/12 00:23:31;;;;;;;6.97;3.97;;;;;;;20.22;42.88;101239.84;5033948;28;20022;-67
2022/03/12 00:25:58;;;;;;;6.70;3.83;;;;;;;20.19;43.14;101242.75;5034324;28;20039;-67
2022/03/12 00:28:24;;;;;;;7.25;3.95;;;;;;;20.20;42.85;101243.56;5032912;28;20021;-66
2022/03/12 00:30:51;;;;;;;6.72;3.88;;;;;;;20.18;42.50;101237.59;5033909;28;20018;-66
2022/03/12 00:33:18;;;;;;;6.18;4.03;;;;;;;20.15;42.93;101243.13;5034081;28;20025;-67
2022/03/12 00:35:47;;;;;;;5.97;3.85;;;;;;;20.17;42.69;101255.28;5033056;28;20033;-67
2022/03/12 00:38:12;;;;;;;8.63;4.10;;;;;;;20.15;42.63;101251.06;5033693;28;20480;-67
2022/03/12 00:40:37;;;;;;;6.80;4.00;;;;;;;20.12;42.96;101252.16;5033604;28;20041;-66
2022/03/12 00:43:03;;;;;;;6.88;3.72;;;;;;;20.14;42.98;101250.25;5033131;28;20377;-67
2022/03/12 00:45:29;;;;;;;6.07;4.00;;;;;;;20.12;42.79;101252.16;5033204;28;20112;-67
2022/03/12 00:47:54;;;;;;;6.15;4.05;;;;;;;20.10;42.96;101254.94;5033733;28;20026;-67
2022/03/12 00:50:20;;;;;;;8.35;4.10;;;;;;;20.11;42.79;101261.06;5032751;28;20444;-67
2022/03/12 00:52:45;;;;;;;6.05;3.70;;;;;;;20.10;42.56;101262.03;5033727;28;20026;-66
2022/03/12 00:55:10;;;;;;;6.90;4.13;;;;;;;20.09;42.42;101263.00;5033624;28;20024;-67
2022/03/12 00:57:36;;;;;;;7.20;4.10;;;;;;;20.07;42.47;101260.47;5032550;28;20029;-67
2022/03/12 01:00:01;;;;;;;7.25;3.83;;;;;;;20.08;42.43;101258.69;5033464;28;20025;-66
2022/03/12 01:02:26;;;;;;;7.00;3.83;;;;;;;20.06;42.77;101252.66;5032348;28;20022;-66
2022/03/12 01:04:52;;;;;;;6.50;3.90;;;;;;;20.05;42.90;101251.84;5033488;28;20026;-65
2022/03/12 01:07:18;;;;;;;8.25;3.67;;;;;;;20.04;42.70;101247.50;5033425;28;20800;-65
2022/03/12 01:09:43;;;;;;;7.18;3.78;;;;;;;20.05;42.76;101256.28;5032302;28;20021;-65
2022/03/12 01:12:09;;;;;;;6.87;4.27;;;;;;;20.03;42.97;101255.59;5033059;28;20516;-66
2022/03/12 01:14:38;;;;;;;6.95;3.90;;;;;;;20.02;42.79;101261.84;5032932;28;20274;-66
2022/03/12 01:17:05;;;;;;;6.22;3.92;;;;;;;20.00;42.86;101264.59;5032588;28;20022;-66
2022/03/12 01:19:31;;;;;;;7.55;4.22;;;;;;;20.00;42.88;101263.78;5032984;28;20036;-66
2022/03/12 01:21:56;;;;;;;7.53;4.20;;;;;;;19.98;42.88;101266.56;5033453;28;20018;-66
2022/03/12 01:24:21;;;;;;;7.10;4.20;;;;;;;19.97;43.10;101275.44;5032001;28;20384;-67
2022/03/12 01:26:46;;;;;;;6.18;3.95;;;;;;;19.96;42.88;101267.63;5033121;28;20293;-67
2022/03/12 01:29:12;;;;;;;7.00;4.20;;;;;;;19.96;42.81;101275.56;5032843;28;20476;-67
2022/03/12 01:31:37;;;;;;;7.00;4.22;;;;;;;19.94;42.92;101268.59;5032024;28;20339;-67
2022/03/12 01:34:04;;;;;;;7.47;4.00;;;;;;;19.92;43.18;101282.91;5033086;28;20026;-67
2022/03/12 01:36:30;;;;;;;6.78;4.15;;;;;;;19.94;42.95;101286.28;5032653;28;20108;-66
2022/03/12 01:38:57;;;;;;;6.20;3.75;;;;;;;19.93;42.50;101284.59;5032136;28;20040;-66
2022/03/12 01:41:29;;;;;;;7.15;4.18;;;;;;;19.93;42.68;101287.22;5032537;28;20063;-66
2022/03/12 01:43:56;;;;;;;7.85;4.45;;;;;;;19.92;43.24;101288.22;5032752;28;20430;-67
2022/03/12 01:46:29;;;;;;;7.43;4.10;;;;;;;19.90;42.96;101280.41;5031915;28;20061;-67
2022/03/12 01:48:57;;;;;;;5.90;3.90;;;;;;;19.91;42.77;101286.53;5032873;28;20112;-67
2022/03/12 01:51:22;;;;;;;6.93;4.13;;;;;;;19.90;43.11;101282.19;5032518;28;20391;-67
2022/03/12 01:53:47;;;;;;;6.20;3.60;;;;;;;19.89;43.33;101276.06;5032053;28;20017;-67
2022/03/12 01:56:13;;;;;;;6.35;4.05;;;;;;;19.89;43.19;101285.81;5032569;28;20274;-67
2022/03/12 01:58:45;;;;;;;7.13;4.03;;;;;;;19.87;43.00;101272.72;5031813;28;20021;-67
2022/03/12 02:01:11;;;;;;;6.07;3.80;;;;;;;19.86;43.07;101276.31;5032805;28;20018;-66
2022/03/12 02:03:36;;;;;;;8.32;4.60;;;;;;;19.85;43.22;101274.66;5032377;28;20094;-66
2022/03/12 02:06:01;;;;;;;7.18;4.10;;;;;;;19.85;43.23;101273.78;5031994;28;20026;-67
2022/03/12 02:08:27;;;;;;;6.55;4.00;;;;;;;19.84;43.17;101278.25;5032328;28;20036;-66
2022/03/12 02:10:57;;;;;;;6.38;4.05;;;;;;;19.84;43.06;101270.31;5032354;28;20037;-66
2022/03/12 02:13:24;;;;;;;6.47;3.65;;;;;;;19.84;42.90;101277.44;5031777;28;20032;-66
2022/03/12 02:15:51;;;;;;;7.63;4.60;;;;;;;19.84;43.01;101277.44;5032659;28;20055;-66
2022/03/12 02:18:16;;;;;;;7.07;4.13;;;;;;;19.83;42.90;101271.28;5032487;28;20026;-67
2022/03/12 02:20:43;;;;;;;6.70;4.07;;;;;;;19.82;42.65;101276.69;5031445;28;20021;-66
2022/03/12 02:23:09;;;;;;;6.95;3.88;;;;;;;19.83;43.02;101283.66;5032482;28;20031;-66
2022/03/12 02:25:35;;;;;;;7.30;4.25;;;;;;;19.82;42.95;101274.03;5034321;28;20064;-67
2022/03/12 02:28:02;;;;;;;5.88;3.80;;;;;;;19.81;42.96;101267.09;5035810;28;20029;-67
2022/03/12 02:30:39;;;;;;;7.55;4.28;;;;;;;19.80;43.06;101273.34;5036168;28;20041;-66
2022/03/12 02:33:05;;;;;;;5.50;3.63;;;;;;;19.79;43.24;101276.94;5036437;28;20053;-66
2022/03/12 02:35:37;;;;;;;7.43;4.13;;;;;;;19.79;42.98;101282.22;5035129;28;20049;-67
2022/03/12 02:38:04;;;;;;;5.63;3.80;;;;;;;19.78;43.00;101283.22;5036210;28;20544;-66
2022/03/12 02:40:29;;;;;;;6.43;3.90;;;;;;;19.79;42.84;101293.66;5036046;28;20025;-67
2022/03/12 02:42:58;;;;;;;6.72;4.13;;;;;;;19.77;42.97;101289.44;5035463;28;20469;-66
2022/03/12 02:45:27;;;;;;;7.32;3.88;;;;;;;19.77;42.94;101295.56;5035693;28;20025;-67
2022/03/12 02:47:55;;;;;;;7.72;4.20;;;;;;;19.76;42.87;101299.19;5035033;28;20036;-67
2022/03/12 02:50:22;;;;;;;5.93;3.75;;;;;;;19.75;42.92;101300.13;5035476;28;20483;-67
2022/03/12 02:52:47;;;;;;;6.32;3.85;;;;;;;19.74;42.71;101303.72;5036119;28;20072;-66
2022/03/12 02:55:16;;;;;;;5.78;3.78;;;;;;;19.77;42.91;101307.97;5035305;28;20496;-67
2022/03/12 02:57:47;;;;;;;6.43;3.92;;;;;;;19.74;42.82;101309.88;5035712;28;20029;-67
2022/03/12 03:00:16;;;;;;;6.05;3.80;;;;;;;19.72;42.86;101309.13;5035996;28;20029;-67
2022/03/12 03:02:42;;;;;;;7.10;3.80;;;;;;;19.71;42.94;101312.75;5034604;28;20389;-67
2022/03/12 03:05:16;;;;;;;7.13;3.92;;;;;;;19.70;42.91;101311.06;5035545;28;20025;-66
2022/03/12 03:07:41;;;;;;;;;;;;;;;19.69;42.96;101305.91;5035767;28;20505;-68
2022/03/12 03:10:09;;;;;;;5.70;3.20;;;;;;;19.69;42.59;101308.56;5034913;28;19913;-67
2022/03/12 03:12:35;;;;;;;7.43;3.85;;;;;;;19.69;42.98;101308.56;5035323;28;20167;-67
2022/03/12 03:15:00;;;;;;;6.47;4.10;;;;;;;19.66;43.06;101316.72;5035763;28;20056;-67
2022/03/12 03:17:26;;;;;;;7.38;3.97;;;;;;;19.64;42.52;101323.94;5034323;28;20054;-68
2022/03/12 03:19:52;;;;;;;7.47;4.20;;;;;;;19.63;42.79;101325.75;5035577;28;20107;-67
2022/03/12 03:22:17;;;;;;;6.65;4.22;;;;;;;19.64;42.89;101322.13;5035487;28;20414;-67
2022/03/12 03:24:43;;;;;;;7.22;4.15;;;;;;;19.62;42.74;101321.44;5034401;28;20033;-66
2022/03/12 03:27:08;;;;;;;6.47;3.67;;;;;;;19.59;42.71;101319.03;5035382;28;20519;-66
2022/03/12 03:29:34;;;;;;;5.95;3.70;;;;;;;19.61;43.00;101324.19;5034943;28;20026;-66
2022/03/12 03:32:02;;;;;;;6.20;3.85;;;;;;;19.60;42.71;101319.84;5034378;28;20053;-67
2022/03/12 03:34:30;;;;;;;6.63;3.88;;;;;;;19.61;42.83;101318.91;5035020;28;20037;-66
2022/03/12 03:36:56;;;;;;;6.95;4.15;;;;;;;19.57;42.79;101332.38;5033907;28;20018;-66
2022/03/12 03:39:22;;;;;;;6.28;3.78;;;;;;;19.56;43.06;101332.50;5034039;28;20096;-66
2022/03/12 03:41:47;;;;;;;6.78;3.58;;;;;;;19.55;43.18;101330.78;5034863;28;20025;-66
2022/03/12 03:44:13;;;;;;;7.43;4.00;;;;;;;19.53;43.15;101333.56;5034116;28;20024;-65
2022/03/12 03:46:39;;;;;;;7.13;4.10;;;;;;;19.55;42.89;101339.59;5034512;28;20056;-66
2022/03/12 03:49:05;;;;;;;6.93;3.78;;;;;;;19.54;42.99;101337.91;5034982;28;20380;-66
2022/03/12 03:51:32;;;;;;;6.75;4.07;;;;;;;19.54;43.08;101337.06;5033940;28;20021;-66
2022/03/12 03:53:57;;;;;;;6.07;3.83;;;;;;;19.52;43.17;101339.84;5034924;28;20112;-66
2022/03/12 03:56:23;;;;;;;6.60;3.78;;;;;;;19.52;43.29;101342.47;5034431;28;20505;-67
2022/03/12 03:58:48;;;;;;;7.55;3.35;;;;;;;19.51;43.13;101339.94;5033889;28;20036;-67
2022/03/12 04:01:18;;;;;;;6.35;3.30;;;;;;;19.50;43.20;101347.06;5034494;28;20057;-67
2022/03/12 04:03:48;;;;;;;6.93;3.88;;;;;;;19.50;43.01;101349.69;5033985;28;20366;-67
2022/03/12 04:06:14;;;;;;;6.65;3.58;;;;;;;19.49;43.16;101348.00;5034146;28;20059;-67
2022/03/12 04:08:42;;;;;;;6.15;3.65;;;;;;;19.47;43.19;101349.06;5034267;28;20392;-66
2022/03/12 04:11:12;;;;;;;5.97;3.45;;;;;;;19.45;43.03;101351.84;5034378;28;20121;-66
2022/03/12 04:13:38;;;;;;;7.50;3.67;;;;;;;19.45;43.34;101348.38;5033413;28;20017;-66
2022/03/12 04:16:05;;;;;;;5.88;3.53;;;;;;;19.45;43.26;101362.41;5034347;28;20032;-66
2022/03/12 04:18:31;;;;;;;6.18;3.67;;;;;;;19.43;43.07;101361.69;5033934;28;20514;-66
2022/03/12 04:20:57;;;;;;;6.05;3.40;;;;;;;19.41;43.25;101363.63;5033547;28;20033;-66
2022/03/12 04:23:23;;;;;;;6.28;3.85;;;;;;;19.42;43.04;101361.81;5033989;28;20032;-66
2022/03/12 04:25:51;;;;;;;6.43;3.55;;;;;;;19.41;43.20;101368.91;5034152;28;20168;-66
2022/03/12 04:28:17;;;;;;;5.25;3.20;;;;;;;19.42;43.47;101364.47;5033072;28;20075;-66
2022/03/12 04:30:42;;;;;;;7.65;3.80;;;;;;;19.36;43.44;101364.00;5033839;28;20029;-66
2022/03/12 04:33:10;;;;;;;7.03;3.38;;;;;;;19.39;43.41;101365.53;5033931;28;20479;-66
2022/03/12 04:35:35;;;;;;;6.05;3.38;;;;;;;19.38;43.51;101361.22;5033098;28;20460;-66
2022/03/12 04:38:01;;;;;;;5.60;3.20;;;;;;;19.37;43.50;101368.28;5034052;28;20025;-66
2022/03/12 04:40:27;;;;;;;5.47;3.30;;;;;;;19.34;43.17;101363.28;5032722;28;20294;-67
2022/03/12 04:42:53;;;;;;;6.78;3.45;;;;;;;19.32;43.03;101375.75;5033851;28;20049;-66
2022/03/12 04:45:24;;;;;;;6.88;3.20;;;;;;;19.32;43.60;101372.28;5033819;28;20018;-66
2022/03/12 04:47:50;;;;;;;5.38;2.97;;;;;;;19.31;43.58;101368.81;5032619;28;20032;-66
2022/03/12 04:50:18;;;;;;;6.43;3.35;;;;;;;19.32;43.26;101367.81;5033706;28;20026;-67
2022/03/12 04:52:46;;;;;;;7.05;3.20;;;;;;;19.29;43.51;101368.06;5033285;28;20155;-67
2022/03/12 04:55:15;;;;;;;6.28;3.47;;;;;;;19.28;43.32;101374.31;5032785;28;20037;-67
2022/03/12 04:57:41;;;;;;;7.55;3.08;;;;;;;19.28;43.47;101384.91;5033011;28;20029;-67
2022/03/12 05:00:15;;;;;;;6.35;3.38;;;;;;;19.28;43.48;101381.38;5033379;28;20496;-67
2022/03/12 05:02:41;;;;;;;5.28;2.97;;;;;;;19.26;43.53;101380.69;5032580;28;20036;-67
2022/03/12 05:05:09;;;;;;;5.57;3.10;;;;;;;19.26;43.90;101381.50;5033451;28;20369;-66
2022/03/12 05:07:35;;;;;;;7.65;3.85;;;;;;;19.33;43.79;101380.09;5033002;28;20029;-67
2022/03/12 05:10:01;;;;;;;5.95;3.00;;;;;;;19.39;43.91;101378.75;5032430;28;20021;-66
2022/03/12 05:12:26;;;;;;;6.23;3.20;;;;;;;19.46;44.71;101379.13;5032777;28;20041;-67
2022/03/12 05:14:54;;;;;;;6.85;2.90;;;;;;;19.49;43.38;101374.44;5033393;28;20750;-67
2022/03/12 05:17:26;;;;;;;5.10;2.90;;;;;;;19.54;43.54;101384.66;5032567;28;20029;-67
2022/03/12 05:19:52;;;;;;;5.13;2.90;;;;;;;19.55;43.24;101384.53;5033078;28;20502;-67
2022/03/12 05:22:17;;;;;;;6.30;2.85;;;;;;;19.57;43.46;101392.34;5033164;28;20108;-67
2022/03/12 05:24:42;;;;;;;5.72;2.90;;;;;;;19.58;43.16;101396.66;5032021;28;20029;-67
2022/03/12 05:27:12;;;;;;;6.00;3.00;;;;;;;19.59;42.95;101393.06;5033184;28;20021;-67
2022/03/12 05:29:38;;;;;;;4.75;2.53;;;;;;;19.56;43.10;101391.47;5031940;28;20508;-67
2022/03/12 05:32:04;;;;;;;5.93;2.90;;;;;;;19.56;43.19;101393.28;5033111;28;20048;-67
2022/03/12 05:34:29;;;;;;;4.95;2.40;;;;;;;19.56;43.51;101399.41;5032594;28;20486;-67
2022/03/12 05:36:54;;;;;;;4.73;2.87;;;;;;;19.57;43.70;101410.84;5032106;28;20025;-66
2022/03/12 05:39:20;;;;;;;5.03;2.60;;;;;;;19.51;43.53;101406.88;5032405;28;20398;-67
2022/03/12 05:41:48;;;;;;;5.55;2.58;;;;;;;19.53;43.42;101412.03;5033055;28;20026;-66
2022/03/12 05:44:14;;;;;;;5.50;2.45;;;;;;;19.50;44.08;101426.34;5031961;28;20072;-67
2022/03/12 05:46:39;;;;;;;5.40;2.50;;;;;;;19.48;43.64;101420.31;5032507;28;20118;-67
2022/03/12 05:49:05;;;;;;;5.18;2.60;;;;;;;19.45;43.81;101422.38;5032586;28;20124;-67
2022/03/12 05:51:31;;;;;;;6.95;2.70;;;;;;;19.43;43.88;101421.66;5031810;28;20021;-67
2022/03/12 05:53:57;;;;;;;6.53;2.72;;;;;;;19.38;43.84;101416.72;5032646;28;20461;-67
2022/03/12 05:56:22;;;;;;;6.07;2.60;;;;;;;19.35;43.63;101427.53;5032376;28;20032;-67
2022/03/12 05:58:48;;;;;;;5.60;2.38;;;;;;;19.36;43.68;101427.41;5031941;28;20030;-67
2022/03/12 06:01:13;;;;;;;4.82;2.50;;;;;;;19.43;43.54;101429.59;5036104;28;20048;-67
2022/03/12 06:03:38;;;;;;;4.60;2.28;;;;;;;19.48;43.25;101422.13;5036422;28;20160;-67
2022/03/12 06:06:04;;;;;;;5.55;2.55;;;;;;;19.54;43.56;101424.31;5035764;28;20026;-67
2022/03/12 06:08:29;;;;;;;5.65;2.65;;;;;;;19.61;43.70;101427.31;5036083;28;20041;-67
2022/03/12 06:10:56;;;;;;;7.05;2.95;;;;;;;19.67;43.67;101427.66;5036428;28;20124;-66
2022/03/12 06:13:27;;;;;;;4.97;2.53;;;;;;;19.75;43.89;101422.59;5035702;28;20021;-66
2022/03/12 06:15:59;;;;;;;5.40;2.45;;;;;;;19.79;43.54;101428.53;5036651;28;20060;-65
2022/03/12 06:18:29;;;;;;;4.93;2.30;;;;;;;19.85;44.03;101433.34;5036069;28;20021;-66
2022/03/12 06:20:55;;;;;;;5.18;2.40;;;;;;;19.89;44.54;101433.94;5035540;28;20028;-66
2022/03/12 06:23:23;;;;;;;5.60;2.63;;;;;;;19.95;44.57;101441.38;5036205;28;20108;-66
2022/03/12 06:25:49;;;;;;;4.68;2.17;;;;;;;19.97;44.64;101434.16;5036406;28;20025;-66
2022/03/12 06:28:14;;;;;;;5.20;2.25;;;;;;;20.02;45.15;101442.56;5035562;28;20041;-66
2022/03/12 06:30:43;;;;;;;7.25;3.08;;;;;;;20.07;44.80;101439.56;5035839;28;20057;-66
2022/03/12 06:33:08;;;;;;;5.63;2.55;;;;;;;20.10;44.89;101442.78;5035335;28;20072;-66
2022/03/12 06:35:34;;;;;;;6.60;2.28;;;;;;;20.14;45.10;101442.53;5035973;28;20021;-66
2022/03/12 06:38:00;;;;;;;5.95;2.30;;;;;;;20.16;45.06;101443.28;5036282;28;20028;-66
2022/03/12 06:40:28;;;;;;;6.20;2.10;;;;;;;20.18;45.19;101446.63;5035034;28;20022;-67
2022/03/12 06:42:56;;;;;;;4.97;2.30;;;;;;;20.21;45.27;101454.34;5035900;28;20483;-66
2022/03/12 06:45:23;;;;;;;4.72;1.90;;;;;;;20.22;44.99;101454.22;5035628;28;20036;-66
2022/03/12 06:47:48;;;;;;;4.28;2.13;;;;;;;20.24;44.60;101459.38;5034973;28;20032;-66
2022/03/12 06:50:20;;;;;;;4.28;2.25;;;;;;;20.27;44.94;101467.06;5035934;28;20021;-66
2022/03/12 06:52:48;;;;;;;7.18;2.78;;;;;;;20.27;45.00;101465.25;5035928;28;20021;-66
2022/03/12 06:55:15;;;;;;;7.00;2.25;;;;;;;20.30;44.79;101462.38;5035020;28;20108;-66
2022/03/12 06:57:41;;;;;;;5.50;2.55;;;;;;;20.29;45.11;101463.31;5035392;28;20037;-66
2022/03/12 07:00:13;;;;;;;4.60;2.08;;;;;;;20.30;45.07;101469.47;5035625;28;20021;-66
2022/03/12 07:02:39;;;;;;;4.30;2.05;;;;;;;20.34;44.99;101467.41;5034822;28;20348;-67
2022/03/12 07:05:05;;;;;;;5.03;2.00;;;;;;;20.35;44.78;101469.94;5035645;28;20017;-66
2022/03/12 07:07:31;;;;;;;5.68;2.35;;;;;;;20.36;44.97;101470.78;5035253;28;20032;-66
2022/03/12 07:09:56;;;;;;;5.40;2.30;;;;;;;20.37;45.02;101467.16;5034837;28;20021;-66
2022/03/12 07:12:22;;;;;;;4.43;2.10;;;;;;;20.39;45.08;101473.16;5034527;28;20045;-67
2022/03/12 07:14:47;;;;;;;3.83;2.03;;;;;;;20.39;45.21;101474.00;5035430;28;20029;-66
2022/03/12 07:17:13;;;;;;;5.10;2.17;;;;;;;20.40;44.74;101478.34;5034442;28;20083;-66
2022/03/12 07:19:38;;;;;;;5.60;1.92;;;;;;;20.38;44.58;101479.44;5034906;28;20018;-66
2022/03/12 07:22:04;;;;;;;5.63;2.17;;;;;;;20.38;43.72;101488.22;5035210;28;20488;-65
2022/03/12 07:24:29;;;;;;;4.50;2.13;;;;;;;20.35;44.04;101485.81;5034157;28;20022;-66
2022/03/12 07:26:55;;;;;;;5.20;2.30;;;;;;;20.36;44.23;101482.22;5035085;28;20469;-64
2022/03/12 07:29:20;;;;;;;5.00;2.00;;;;;;;20.33;44.23;101498.34;5034123;28;20033;-63
2022/03/12 07:31:45;;;;;;;4.43;1.98;;;;;;;20.31;44.30;101494.97;5035090;28;20568;-64
2022/03/12 07:34:11;;;;;;;4.38;1.92;;;;;;;20.33;44.71;101494.84;5034967;28;20029;-63
2022/03/12 07:36:36;;;;;;;5.50;2.10;;;;;;;20.33;44.66;101502.78;5034013;28;20018;-65
2022/03/12 07:39:03;;;;;;;5.13;1.98;;;;;;;20.36;45.00;101506.03;5034937;28;20380;-65
2022/03/12 07:41:30;;;;;;;5.40;1.83;;;;;;;20.39;44.56;101516.34;5034550;28;20465;-62
2022/03/12 07:43:56;;;;;;;5.13;1.92;;;;;;;20.44;44.66;101519.50;5033945;28;20017;-63
2022/03/12 07:46:24;;;;;;;6.90;1.95;;;;;;;20.48;44.98;101528.84;5034378;28;20017;-64
2022/03/12 07:48:50;;;;;;;3.90;1.92;;;;;;;20.53;44.57;101525.00;5034597;28;20036;-64
2022/03/12 07:51:16;;;;;;;6.10;2.38;;;;;;;20.55;44.40;101523.06;5034009;28;20029;-64
2022/03/12 07:53:42;;;;;;;3.83;1.90;;;;;;;20.58;44.31;101526.31;5034237;28;20033;-63
2022/03/12 07:56:08;;;;;;;4.43;1.77;;;;;;;20.61;44.25;101523.41;5034660;28;20026;-63
2022/03/12 07:58:35;;;;;;;4.22;1.95;;;;;;;20.63;44.69;101523.28;5033324;28;20384;-63
2022/03/12 08:01:03;;;;;;;4.50;1.90;;;;;;;20.66;44.46;101533.66;5034534;28;20024;-63
2022/03/12 08:03:29;;;;;;;5.18;2.13;;;;;;;20.64;44.47;101536.44;5034140;28;20029;-63
2022/03/12 08:05:54;;;;;;;4.40;2.00;;;;;;;20.67;44.73;101537.19;5033799;28;20017;-63
2022/03/12 08:08:20;;;;;;;4.00;2.03;;;;;;;20.69;44.35;101543.19;5033960;28;20021;-63
2022/03/12 08:13:29;;;;;;;5.53;2.57;;;;;;;20.69;42.89;101544.00;5033467;28;20044;-62
2022/03/12 08:15:55;;;;;;;5.53;2.20;;;;;;;20.64;43.44;101551.50;5034288;28;20021;-62
2022/03/12 08:18:22;;;;;;;4.22;2.05;;;;;;;20.60;44.09;101548.22;5033977;28;20095;-64
2022/03/12 08:20:48;;;;;;;4.43;1.98;;;;;;;20.63;44.48;101553.28;5033625;28;20154;-63
2022/03/12 08:23:14;;;;;;;6.25;1.80;;;;;;;20.65;44.54;101554.03;5033291;28;20030;-63
2022/03/12 08:25:40;;;;;;;4.95;2.25;;;;;;;20.63;44.60;101552.41;5032902;28;20081;-63
2022/03/12 08:28:05;;;;;;;5.45;2.10;;;;;;;20.69;43.51;101565.19;5033834;28;20034;-65
2022/03/12 08:30:31;;;;;;;5.53;2.45;;;;;;;20.69;43.60;101567.03;5033852;28;20518;-64
2022/03/12 08:32:56;;;;;;;7.82;2.20;;;;;;;20.66;44.30;101570.75;5033280;28;20021;-64
2022/03/12 08:35:22;;;;;;;5.30;2.20;;;;;;;20.60;44.56;101572.06;5033914;28;20037;-69
2022/03/12 08:37:47;;;;;;;5.45;2.15;;;;;;;20.63;44.93;101576.25;5033709;28;20052;-68
2022/03/12 08:40:13;;;;;;;6.72;2.40;;;;;;;20.64;44.95;101577.97;5032935;28;20025;-66
2022/03/12 08:42:39;;;;;;;5.28;1.98;;;;;;;20.68;45.12;101575.91;5033173;28;20451;-67
2022/03/12 08:45:05;;;;;;;4.93;2.10;;;;;;;20.70;45.18;101581.94;5033829;28;20033;-66
2022/03/12 08:47:30;;;;;;;3.72;1.77;;;;;;;20.72;45.24;101583.50;5032765;28;20026;-64
2022/03/12 08:49:55;;;;;;;4.07;2.17;;;;;;;20.75;45.35;101588.53;5033621;28;20530;-66
2022/03/12 08:52:21;;;;;;;4.45;2.05;;;;;;;20.75;45.00;101585.06;5033121;28;20032;-68
2022/03/12 08:54:46;;;;;;;6.53;2.17;;;;;;;20.77;45.06;101589.25;5032777;28;20029;-68
2022/03/12 08:57:11;;;;;;;4.50;2.15;;;;;;;20.79;45.42;101589.13;5033394;28;20056;-66
2022/03/12 08:59:37;;;;;;;4.90;2.10;;;;;;;20.81;44.55;101593.34;5033355;28;20507;-66
2022/03/12 09:02:02;;;;;;;3.70;1.90;;;;;;;20.84;44.43;101595.75;5032435;28;20499;-65
2022/03/12 09:04:28;;;;;;;5.18;2.30;;;;;;;20.84;44.66;101590.47;5032894;28;20029;-66
2022/03/12 09:06:53;;;;;;;4.95;1.85;;;;;;;20.85;44.60;101591.28;5033177;28;20018;-63
2022/03/12 09:09:18;;;;;;;4.03;1.97;;;;;;;20.87;45.07;101592.03;5032480;28;20385;-65
2022/03/12 09:11:43;;;;;;;4.93;1.90;;;;;;;20.87;44.73;101592.03;5032653;28;20279;-64
2022/03/12 09:14:10;;;;;;;4.20;1.92;;;;;;;20.87;44.92;101586.72;5032990;28;20025;-65
2022/03/12 09:16:36;;;;;;;7.00;2.30;;;;;;;20.87;44.79;101588.50;5031995;28;20038;-66
2022/03/12 09:19:03;;;;;;;5.00;2.00;;;;;;;20.86;44.38;101590.34;5032973;28;20032;-64
2022/03/12 09:21:28;;;;;;;4.88;2.13;;;;;;;20.88;44.59;101598.16;5032518;28;20488;-63
2022/03/12 09:23:54;;;;;;;6.90;1.90;;;;;;;20.86;44.87;101598.28;5032181;28;20017;-64
2022/03/12 09:26:21;;;;;;;3.92;2.03;;;;;;;20.88;44.98;101593.69;5032636;28;20768;-65
2022/03/12 09:28:48;;;;;;;4.43;2.20;;;;;;;20.86;44.31;101595.63;5032196;28;20087;-68
2022/03/12 09:31:13;;;;;;;5.32;1.98;;;;;;;20.84;44.67;101600.22;5032903;28;20045;-66
2022/03/12 09:33:38;;;;;;;5.55;1.98;;;;;;;20.82;44.56;101592.41;5032560;28;20056;-64
2022/03/12 09:36:04;;;;;;;5.20;1.80;;;;;;;20.86;44.72;101597.44;5032157;28;20022;-65
2022/03/12 09:38:29;;;;;;;4.65;2.17;;;;;;;20.87;44.51;101592.03;5032684;28;20024;-64
2022/03/12 09:40:55;;;;;;;4.27;1.90;;;;;;;20.87;44.65;101597.31;5032644;28;20025;-68
2022/03/12 09:43:20;;;;;;;3.70;1.70;;;;;;;20.90;44.87;101601.50;5031471;28;20286;-66
2022/03/12 09:45:46;;;;;;;3.80;1.80;;;;;;;20.91;44.72;101593.44;5032772;28;20041;-64
2022/03/12 09:48:12;;;;;;;4.78;2.05;;;;;;;20.92;44.49;101589.84;5032738;28;20696;-62
2022/03/12 09:50:37;;;;;;;3.38;1.63;;;;;;;20.92;44.72;101594.28;5031578;28;20438;-62
2022/03/12 09:53:03;;;;;;;4.67;1.67;;;;;;;20.94;44.35;101595.84;5032505;28;20025;-60
2022/03/12 09:55:28;;;;;;;6.25;1.95;;;;;;;20.94;44.34;101601.13;5032030;28;20275;-61
2022/03/12 09:57:54;;;;;;;4.13;1.70;;;;;;;20.96;44.39;101599.19;5031889;28;20029;-60
2022/03/12 10:00:19;;;;;;;4.85;1.60;;;;;;;20.98;44.53;101607.88;5032528;28;20052;-61
2022/03/12 10:02:45;;;;;;;4.10;1.70;;;;;;;20.99;44.21;101611.38;5032381;28;20460;-61
2022/03/12 10:05:13;;;;;;;4.95;1.92;;;;;;;20.99;44.29;101608.72;5031979;28;20029;-61
2022/03/12 10:07:39;;;;;;;3.83;1.67;;;;;;;20.97;44.59;101608.00;5032240;28;20128;-61
2022/03/12 10:10:06;;;;;;;4.30;1.80;;;;;;;20.94;44.33;101605.59;5032417;28;20381;-61
2022/03/12 10:12:32;;;;;;;3.90;1.70;;;;;;;20.92;44.66;101596.91;5031317;28;20048;-60
2022/03/12 10:14:57;;;;;;;3.70;1.73;;;;;;;20.98;45.07;101610.53;5032678;28;20026;-60
2022/03/12 10:17:22;;;;;;;4.00;1.67;;;;;;;20.97;45.35;101608.00;5032094;28;20113;-61
2022/03/12 10:19:48;;;;;;;3.60;1.70;;;;;;;20.96;45.04;101608.97;5031751;28;20274;-62
2022/03/12 10:22:14;;;;;;;6.78;1.90;;;;;;;20.97;44.87;101608.84;5032488;28;20029;-61
2022/03/12 10:24:40;;;;;;;4.28;1.75;;;;;;;20.97;44.98;101616.78;5031961;28;20030;-61
2022/03/12 10:27:06;;;;;;;4.85;1.83;;;;;;;20.98;44.91;101609.69;5031663;28;20036;-60
2022/03/12 10:29:34;;;;;;;4.95;1.75;;;;;;;20.95;44.84;101609.91;5032227;28;20034;-60
2022/03/12 10:32:20;;;;;;;5.60;2.03;;;;;;;20.97;45.26;101611.50;5032514;28;20021;-61
2022/03/12 10:34:52;;;;;;;4.00;1.45;;;;;;;21.00;45.05;101603.28;5032390;28;20147;-60
2022/03/12 10:37:22;;;;;;;4.85;1.80;;;;;;;20.99;45.05;101606.06;5032302;28;20457;-61
2022/03/12 10:39:48;;;;;;;4.32;1.52;;;;;;;20.99;45.00;101611.38;5031615;28;20037;-62
2022/03/12 10:42:14;;;;;;;3.90;1.60;;;;;;;21.00;44.63;101613.91;5032490;28;20018;-62
2022/03/12 10:44:42;;;;;;;4.75;1.50;;;;;;;21.00;44.41;101611.25;5032011;28;20435;-62
2022/03/12 10:47:23;;;;;;;3.67;1.60;;;;;;;21.01;44.31;101615.59;5034755;28;20048;-62
2022/03/12 10:50:04;;;;;;;6.32;2.22;;;;;;;21.01;44.83;101615.59;5036110;28;20025;-61
2022/03/12 10:52:31;;;;;;;4.50;1.60;;;;;;;21.02;45.27;101608.47;5035821;28;20025;-61
2022/03/12 10:55:18;;;;;;;5.60;1.92;;;;;;;21.02;45.31;101603.16;5035081;28;20358;-62
2022/03/12 10:58:07;;;;;;;6.35;1.67;;;;;;;21.01;45.33;101610.28;5035385;28;20032;-61
2022/03/12 11:00:56;;;;;;;5.07;1.88;;;;;;;21.00;45.35;101605.13;5034955;28;20519;-61
2022/03/12 11:03:23;;;;;;;4.75;1.70;;;;;;;20.99;44.98;101608.72;5035499;28;20116;-61
2022/03/12 11:05:50;;;;;;;4.97;1.88;;;;;;;20.98;45.38;101605.25;5035718;28;20029;-61
2022/03/12 11:08:23;;;;;;;6.15;1.80;;;;;;;20.98;45.42;101615.84;5034641;28;20029;-61
2022/03/12 11:10:54;;;;;;;4.90;1.52;;;;;;;20.97;45.34;101614.13;5035502;28;20393;-61
2022/03/12 11:13:44;;;;;;;5.60;1.40;;;;;;;20.99;45.20;101616.66;5035528;28;20100;-61
2022/03/12 11:16:32;;;;;;;3.50;1.50;;;;;;;20.98;45.24;101618.50;5034971;28;20029;-61
2022/03/12 11:19:01;;;;;;;5.32;1.48;;;;;;;20.98;45.38;101613.19;5035506;28;20025;-61
2022/03/12 11:21:42;;;;;;;4.45;1.73;;;;;;;20.98;45.06;101617.63;5034468;28;20136;-61
2022/03/12 11:24:11;;;;;;;5.45;1.40;;;;;;;20.98;45.35;101615.84;5035411;28;20024;-60
2022/03/12 11:27:03;;;;;;;4.03;1.40;;;;;;;20.98;45.45;101625.56;5034913;28;20029;-60